Time;durP1;ratioP1;P1;durP2;ratioP2;P2;SDS_P1;SDS_P2;PMS_P1;PMS_P2;Temp;Humidity;BMP_temperature;BMP_pressure;BME280_temperature;BME280_humidity;BME280_pressure;Samples;Min_cycle;Max_cycle;Signal;HPM_P1;HPM_P2
2021/10/29 00:02:22;;;;;;;38.47;21.30;;;;;;;13.71;51.86;101234.09;4987475;28;97511;-78
2021/10/29 00:04:49;;;;;;;36.47;21.05;;;;;;;13.69;52.18;101227.97;4984733;28;96805;-79
2021/10/29 00:07:15;;;;;;;39.90;21.77;;;;;;;13.80;51.30;101225.75;4985183;28;96972;-80
2021/10/29 00:09:42;;;;;;;37.40;21.33;;;;;;;13.91;51.40;101223.50;4987994;28;100069;-79
2021/10/29 00:12:12;;;;;;;37.28;21.65;;;;;;;13.64;51.79;101223.78;5000197;28;97003;-78
2021/10/29 00:14:39;;;;;;;38.35;21.92;;;;;;;13.88;51.12;101222.78;4986517;28;97076;-80
2021/10/29 00:17:06;;;;;;;37.90;21.80;;;;;;;13.49;51.83;101219.94;4990328;28;98840;-80
2021/10/29 00:19:32;;;;;;;36.63;23.23;;;;;;;13.63;51.62;101214.94;4985752;28;98926;-80
2021/10/29 00:21:59;;;;;;;37.30;22.13;;;;;;;13.80;51.24;101214.25;4984484;28;97232;-80
2021/10/29 00:24:26;;;;;;;39.88;24.30;;;;;;;13.53;51.91;101226.84;4990557;28;96801;-80
2021/10/29 00:26:52;;;;;;;39.08;22.85;;;;;;;13.56;52.13;101219.66;4991551;28;101704;-79
2021/10/29 00:29:20;;;;;;;37.33;22.73;;;;;;;13.71;51.75;101218.16;4984390;28;98093;-79
2021/10/29 00:31:47;;;;;;;37.55;22.85;;;;;;;13.63;51.49;101211.44;4979028;28;96910;-78
2021/10/29 00:34:14;;;;;;;37.80;23.48;;;;;;;13.70;51.20;101224.41;4977378;28;98028;-79
2021/10/29 00:36:40;;;;;;;37.17;22.83;;;;;;;13.62;51.77;101210.56;4980918;28;102711;-78
2021/10/29 00:39:07;;;;;;;40.10;21.67;;;;;;;13.48;51.87;101213.78;4981876;28;101066;-79
2021/10/29 00:41:35;;;;;;;42.75;24.40;;;;;;;13.41;52.26;101203.47;4983060;28;96776;-80
2021/10/29 00:44:02;;;;;;;40.45;23.00;;;;;;;13.61;51.25;101214.13;4986844;28;97173;-79
2021/10/29 00:46:30;;;;;;;37.65;23.15;;;;;;;13.62;51.38;101205.25;4988293;28;99328;-79
2021/10/29 00:48:57;;;;;;;39.42;22.98;;;;;;;13.54;51.43;101210.00;4982345;28;98627;-79
2021/10/29 00:51:24;;;;;;;43.60;23.45;;;;;;;13.44;51.99;101203.34;4978925;28;96719;-79
2021/10/29 00:53:52;;;;;;;40.92;24.85;;;;;;;13.20;52.38;101202.50;4965422;28;97085;-79
2021/10/29 00:56:19;;;;;;;38.05;24.30;;;;;;;13.30;52.18;101192.41;4977953;28;97629;-79
2021/10/29 00:58:46;;;;;;;44.53;26.25;;;;;;;13.24;52.56;101203.28;4981213;28;99220;-79
2021/10/29 01:01:13;;;;;;;40.25;23.25;;;;;;;13.21;52.54;101211.34;4991754;28;96659;-80
2021/10/29 01:03:42;;;;;;;39.85;23.65;;;;;;;13.40;52.29;101199.06;4990156;28;97340;-79
2021/10/29 01:06:10;;;;;;;38.42;23.42;;;;;;;12.93;53.10;101193.78;4992901;28;96867;-80
2021/10/29 01:08:36;;;;;;;41.47;24.27;;;;;;;13.10;52.94;101190.50;4979599;28;99060;-79
2021/10/29 01:11:04;;;;;;;41.83;23.58;;;;;;;13.03;53.04;101178.41;4978147;28;96988;-79
2021/10/29 01:13:31;;;;;;;42.67;23.67;;;;;;;13.02;53.25;101188.13;4980020;28;96993;-80
2021/10/29 01:15:58;;;;;;;45.58;24.83;;;;;;;13.16;53.14;101180.56;4976054;28;99438;-79
2021/10/29 01:18:25;;;;;;;41.55;25.13;;;;;;;13.23;52.85;101197.09;4977700;28;102183;-80
2021/10/29 01:20:52;;;;;;;42.13;24.98;;;;;;;13.33;52.33;101184.31;4985331;28;97135;-79
2021/10/29 01:23:19;;;;;;;44.10;24.75;;;;;;;13.13;52.66;101188.63;4976371;28;96817;-79
2021/10/29 01:25:45;;;;;;;43.53;24.75;;;;;;;13.31;52.17;101188.84;4981312;28;100597;-79
2021/10/29 01:28:13;;;;;;;42.33;25.25;;;;;;;13.31;52.18;101183.53;4984103;28;98898;-80
2021/10/29 01:30:40;;;;;;;48.13;24.92;;;;;;;13.29;52.44;101185.38;4987409;28;97207;-78
2021/10/29 01:33:07;;;;;;;45.50;25.80;;;;;;;13.28;52.34;101180.97;4976985;28;97080;-79
2021/10/29 01:35:33;;;;;;;42.92;25.00;;;;;;;13.33;52.14;101176.34;4977671;28;101276;-79
2021/10/29 01:38:01;;;;;;;48.28;25.23;;;;;;;13.04;52.69;101173.03;4971188;28;99226;-79
2021/10/29 01:40:28;;;;;;;43.55;24.58;;;;;;;13.26;52.54;101185.50;4980723;28;96775;-79
2021/10/29 01:42:54;;;;;;;47.70;25.17;;;;;;;13.45;52.01;101186.50;4978654;28;98579;-79
2021/10/29 01:45:21;;;;;;;46.25;26.17;;;;;;;13.36;51.97;101186.84;4975655;28;99358;-79
2021/10/29 01:47:48;;;;;;;47.03;25.38;;;;;;;13.36;51.88;101193.03;4986786;28;98890;-79
2021/10/29 01:50:15;;;;;;;49.13;26.52;;;;;;;13.24;52.49;101208.56;4975293;28;97292;-79
2021/10/29 01:52:41;;;;;;;44.63;25.42;;;;;;;13.22;52.42;101189.19;4976839;28;96829;-79
2021/10/29 01:55:09;;;;;;;41.63;25.48;;;;;;;12.84;53.12;101177.38;4975836;28;99279;-79
2021/10/29 01:57:36;;;;;;;46.85;26.15;;;;;;;12.77;53.63;101180.25;4983681;28;98262;-79
2021/10/29 02:00:04;;;;;;;43.95;26.00;;;;;;;12.70;53.76;101170.81;4980562;28;97711;-78
2021/10/29 02:02:31;;;;;;;47.45;25.67;;;;;;;12.70;53.88;101178.75;4976525;28;96889;-78
2021/10/29 02:04:57;;;;;;;45.13;26.13;;;;;;;12.90;53.27;101172.69;4975415;28;98959;-79
2021/10/29 02:07:24;;;;;;;44.92;27.55;;;;;;;12.85;53.11;101174.66;4976016;28;101321;-79
2021/10/29 02:09:50;;;;;;;44.35;26.88;;;;;;;12.68;54.09;101180.59;4976391;28;97314;-79
2021/10/29 02:12:18;;;;;;;42.22;25.88;;;;;;;12.75;53.71;101173.28;4975599;28;96950;-79
2021/10/29 02:14:44;;;;;;;51.00;26.80;;;;;;;12.80;53.38;101176.59;4975759;28;100844;-79
2021/10/29 02:17:11;;;;;;;50.17;27.35;;;;;;;12.85;53.22;101174.66;4974677;28;97776;-80
2021/10/29 02:19:38;;;;;;;45.72;25.60;;;;;;;12.92;53.00;101170.88;4975770;28;96738;-81
2021/10/29 02:22:04;;;;;;;43.58;25.85;;;;;;;12.72;53.56;101173.41;4989555;28;97199;-80
2021/10/29 02:24:31;;;;;;;44.22;26.23;;;;;;;12.71;53.38;101171.66;4991286;28;98850;-79
2021/10/29 02:26:58;;;;;;;45.38;26.90;;;;;;;12.61;53.97;101157.88;4983090;28;98863;-80
2021/10/29 02:29:26;;;;;;;45.47;26.60;;;;;;;12.73;53.62;101165.38;4988711;28;96698;-80
2021/10/29 02:31:53;;;;;;;46.70;26.88;;;;;;;12.64;53.66;101159.56;4976498;28;97220;-79
2021/10/29 02:34:20;;;;;;;50.33;27.13;;;;;;;12.69;53.49;101160.25;4975647;28;98945;-79
2021/10/29 02:36:46;;;;;;;49.40;27.75;;;;;;;12.83;53.21;101163.25;4977795;28;98779;-80
2021/10/29 02:39:13;;;;;;;49.90;26.70;;;;;;;12.83;53.08;101154.44;4985345;28;96928;-80
2021/10/29 02:41:39;;;;;;;52.13;27.65;;;;;;;12.73;53.09;101160.06;4978758;28;97291;-80
2021/10/29 02:44:06;;;;;;;42.35;26.45;;;;;;;12.87;53.11;101162.19;4981708;28;98966;-80
2021/10/29 02:46:34;;;;;;;52.83;27.60;;;;;;;13.04;52.74;101166.88;4978957;28;101343;-79
2021/10/29 02:49:00;;;;;;;46.67;27.63;;;;;;;12.97;52.44;101173.34;4975829;28;97615;-80
2021/10/29 02:51:29;;;;;;;50.75;26.92;;;;;;;12.59;53.60;101172.13;4983461;28;96892;-81
2021/10/29 02:53:56;;;;;;;43.30;25.75;;;;;;;12.74;53.14;101167.09;4983932;28;101314;-80
2021/10/29 02:56:22;;;;;;;45.88;26.27;;;;;;;12.66;53.49;101165.69;4993098;28;100614;-80
2021/10/29 02:58:49;;;;;;;48.47;26.83;;;;;;;12.72;53.42;101162.81;4983992;28;96917;-80
2021/10/29 03:01:15;;;;;;;46.08;26.10;;;;;;;12.85;53.07;101166.72;4976753;28;98876;-80
2021/10/29 03:03:44;;;;;;;50.08;27.23;;;;;;;12.81;52.91;101167.72;4980502;28;99876;-80
2021/10/29 03:06:10;;;;;;;45.53;27.55;;;;;;;12.66;53.33;101171.00;4977040;28;98913;-80
2021/10/29 03:08:37;;;;;;;49.28;27.50;;;;;;;12.81;52.88;101161.56;4979678;28;97844;-80
2021/10/29 03:11:03;;;;;;;46.38;27.13;;;;;;;12.55;53.56;101160.75;4988648;28;97049;-79
2021/10/29 03:13:30;;;;;;;49.53;28.05;;;;;;;12.48;54.08;101163.69;4979681;28;99332;-80
2021/10/29 03:15:56;;;;;;;50.22;27.38;;;;;;;12.45;53.96;101163.81;4976627;28;99323;-80
2021/10/29 03:18:23;;;;;;;48.15;28.05;;;;;;;12.36;54.52;101165.88;4977776;28;96808;-80
2021/10/29 03:20:51;;;;;;;52.50;27.50;;;;;;;12.20;54.77;101172.66;4980297;28;97004;-79
2021/10/29 03:23:19;;;;;;;48.42;26.73;;;;;;;12.19;54.99;101173.56;4976385;28;98315;-79
2021/10/29 03:25:47;;;;;;;50.55;26.92;;;;;;;12.29;54.53;101174.09;4985738;28;99153;-80
2021/10/29 03:28:14;;;;;;;53.05;26.67;;;;;;;12.31;54.57;101178.44;4984069;28;97113;-79
2021/10/29 03:30:41;;;;;;;46.45;27.60;;;;;;;12.38;54.04;101179.94;4984165;28;98456;-79
2021/10/29 03:33:07;;;;;;;50.53;27.55;;;;;;;12.29;54.55;101172.31;4985752;28;99247;-80
2021/10/29 03:35:34;;;;;;;46.35;26.98;;;;;;;12.43;54.21;101171.81;4989033;28;99230;-79
2021/10/29 03:40:56;;;;;;;51.30;27.02;;;;;;;12.24;54.55;101171.63;4969817;28;96762;-79
2021/10/29 03:43:26;;;;;;;45.95;26.95;;;;;;;12.15;55.04;101166.63;4982915;28;98578;-80
2021/10/29 03:45:55;;;;;;;49.58;27.15;;;;;;;11.97;55.22;101172.56;4973096;28;98200;-79
2021/10/29 03:48:27;;;;;;;48.17;25.88;;;;;;;11.86;56.00;101157.06;4977371;28;96842;-78
2021/10/29 03:51:03;;;;;;;51.80;27.30;;;;;;;12.24;54.80;101165.44;4974318;28;96889;-79
2021/10/29 03:53:36;;;;;;;47.65;27.15;;;;;;;12.21;54.79;101162.91;4994081;28;99609;-79
2021/10/29 03:56:04;;;;;;;41.25;25.48;;;;;;;12.27;54.33;101158.25;4977205;28;97918;-79
2021/10/29 03:58:31;;;;;;;47.30;26.73;;;;;;;12.24;54.70;101157.50;4987919;28;96803;-79
2021/10/29 04:00:57;;;;;;;51.08;27.70;;;;;;;12.12;54.80;101156.16;4977658;28;96878;-78
2021/10/29 04:03:24;;;;;;;42.53;25.33;;;;;;;11.84;55.56;101161.53;4980494;28;98906;-78
2021/10/29 04:05:50;;;;;;;46.08;25.73;;;;;;;12.07;55.16;101157.25;4977537;28;98240;-79
2021/10/29 04:08:17;;;;;;;50.15;27.00;;;;;;;12.04;55.16;101152.91;4978941;28;96676;-79
2021/10/29 04:10:45;;;;;;;46.05;26.27;;;;;;;11.87;55.57;101150.88;4977774;28;96797;-79
2021/10/29 04:13:12;;;;;;;49.47;26.38;;;;;;;11.88;55.78;101157.84;4977579;28;98992;-79
2021/10/29 04:15:40;;;;;;;45.42;26.83;;;;;;;12.05;55.08;101157.28;4978071;28;99303;-79
2021/10/29 04:18:08;;;;;;;49.20;26.73;;;;;;;11.90;55.51;101157.81;4980669;28;96757;-79
2021/10/29 04:20:35;;;;;;;45.15;26.33;;;;;;;12.01;55.39;101160.13;4975338;28;97082;-78
2021/10/29 04:23:02;;;;;;;46.38;25.67;;;;;;;12.12;54.98;101165.88;4977072;28;99335;-79
2021/10/29 04:25:29;;;;;;;45.25;25.98;;;;;;;11.85;55.35;101168.56;4987333;28;98058;-78
2021/10/29 04:27:59;;;;;;;47.28;25.70;;;;;;;12.09;54.63;101156.25;4988078;28;97787;-78
2021/10/29 04:30:28;;;;;;;46.88;26.88;;;;;;;12.10;54.63;101157.13;4977996;28;96854;-79
2021/10/29 04:32:55;;;;;;;46.92;25.33;;;;;;;12.23;54.47;101158.41;4979554;28;99203;-79
2021/10/29 04:35:22;;;;;;;48.28;26.35;;;;;;;11.96;54.93;101152.31;4981602;28;99326;-79
2021/10/29 04:37:48;;;;;;;44.03;24.90;;;;;;;11.94;54.95;101157.69;4985042;28;98621;-80
2021/10/29 04:40:15;;;;;;;52.95;25.88;;;;;;;11.96;55.11;101160.25;4985020;28;97485;-79
2021/10/29 04:42:42;;;;;;;47.97;25.70;;;;;;;11.93;55.16;101166.53;4976560;28;98131;-80
2021/10/29 04:45:11;;;;;;;45.75;25.27;;;;;;;11.97;54.94;101164.63;4978870;28;98896;-79
2021/10/29 04:47:37;;;;;;;47.72;26.33;;;;;;;11.77;55.08;101169.75;4981153;28;96785;-79
2021/10/29 04:50:06;;;;;;;46.67;25.42;;;;;;;11.92;55.36;101163.94;4978219;28;97614;-80
2021/10/29 04:52:33;;;;;;;40.95;24.42;;;;;;;11.85;55.22;101165.94;4980517;28;97745;-79
2021/10/29 04:55:00;;;;;;;46.70;26.67;;;;;;;11.92;55.17;101167.44;4982236;28;98876;-78
2021/10/29 04:57:26;;;;;;;57.33;28.00;;;;;;;11.92;54.86;101162.16;4984532;28;97404;-80
2021/10/29 04:59:53;;;;;;;39.83;24.45;;;;;;;12.01;54.49;101165.41;4978368;28;96861;-79
2021/10/29 05:02:21;;;;;;;44.40;26.23;;;;;;;11.94;54.93;101162.97;4984560;28;99088;-80
2021/10/29 05:04:47;;;;;;;47.33;25.77;;;;;;;11.87;54.82;101155.28;4977890;28;98169;-81
2021/10/29 05:07:14;;;;;;;49.22;25.60;;;;;;;11.55;55.74;101165.13;4983157;28;98076;-82
2021/10/29 05:09:41;;;;;;;45.45;25.25;;;;;;;11.62;55.44;101163.13;4972638;28;96831;-80
2021/10/29 05:12:08;;;;;;;46.30;25.35;;;;;;;11.61;55.96;101157.91;4978503;28;97832;-81
2021/10/29 05:14:34;;;;;;;42.90;25.27;;;;;;;11.37;56.62;101165.72;4978358;28;99770;-81
2021/10/29 05:17:01;;;;;;;47.25;26.85;;;;;;;11.42;56.48;101169.06;4991146;28;98287;-81
2021/10/29 05:19:29;;;;;;;42.88;26.17;;;;;;;11.50;55.90;101161.75;4979841;28;96801;-80
2021/10/29 05:21:55;;;;;;;43.13;26.13;;;;;;;11.41;56.03;101164.72;4985609;28;100981;-81
2021/10/29 05:24:22;;;;;;;46.05;25.85;;;;;;;11.34;56.44;101155.25;4978584;28;97714;-82
2021/10/29 05:26:49;;;;;;;43.00;25.20;;;;;;;11.52;56.02;101154.66;4978984;28;96747;-81
2021/10/29 05:29:15;;;;;;;44.35;25.65;;;;;;;11.57;55.99;101163.28;4981311;28;97104;-81
2021/10/29 05:31:42;;;;;;;46.85;24.92;;;;;;;11.63;55.74;101156.06;4981565;28;98561;-81
2021/10/29 05:34:09;;;;;;;48.55;25.88;;;;;;;11.69;55.37;101163.78;4970514;28;97774;-82
2021/10/29 05:36:37;;;;;;;43.92;26.42;;;;;;;11.82;55.05;101162.50;4985776;28;96710;-80
2021/10/29 05:39:05;;;;;;;46.10;25.92;;;;;;;11.68;55.17;101162.97;4975027;28;96894;-82
2021/10/29 05:41:32;;;;;;;50.88;26.30;;;;;;;11.67;55.05;101161.22;4979796;28;99093;-80
2021/10/29 05:43:59;;;;;;;51.63;26.33;;;;;;;11.56;55.83;101164.22;4975400;28;99718;-80
2021/10/29 05:46:30;;;;;;;46.63;24.50;;;;;;;11.64;55.45;101160.44;4985050;28;96795;-81
2021/10/29 05:48:57;;;;;;;41.28;25.85;;;;;;;11.16;56.88;101161.09;4984688;28;96810;-80
2021/10/29 05:51:25;;;;;;;45.53;25.73;;;;;;;11.21;56.96;101159.19;4985731;28;100956;-79
2021/10/29 05:54:07;;;;;;;45.20;25.30;;;;;;;11.16;57.05;101164.63;4987309;28;99219;-80
2021/10/29 05:56:34;;;;;;;41.88;24.40;;;;;;;11.47;56.29;101171.59;4994620;28;96749;-80
2021/10/29 05:59:04;;;;;;;41.63;25.65;;;;;;;11.50;56.07;101171.47;4982920;28;96763;-81
2021/10/29 06:01:30;;;;;;;42.95;24.20;;;;;;;11.56;55.62;101171.28;4976818;28;98965;-81
2021/10/29 06:03:57;;;;;;;44.88;25.30;;;;;;;11.55;55.82;101175.69;4975977;28;99282;-81
2021/10/29 06:06:27;;;;;;;50.15;25.92;;;;;;;11.39;56.47;101176.25;4989946;28;97248;-80
2021/10/29 06:08:55;;;;;;;42.90;24.48;;;;;;;11.46;56.17;101178.66;4988664;28;97511;-80
2021/10/29 06:11:26;;;;;;;47.35;25.33;;;;;;;11.86;54.83;101174.72;4978983;28;97530;-80
2021/10/29 06:13:53;;;;;;;49.45;25.73;;;;;;;11.67;55.06;101173.59;4982820;28;97011;-80
2021/10/29 06:16:19;;;;;;;48.03;26.63;;;;;;;11.77;55.04;101172.38;4978991;28;97198;-79
2021/10/29 06:18:46;;;;;;;48.70;26.00;;;;;;;11.73;54.71;101173.38;4980369;28;97606;-80
2021/10/29 06:21:15;;;;;;;44.33;25.25;;;;;;;11.80;54.98;101181.09;4983579;28;98287;-80
2021/10/29 06:23:51;;;;;;;47.08;25.20;;;;;;;11.89;54.47;101180.78;4985502;28;98066;-81
2021/10/29 06:26:24;;;;;;;51.90;26.33;;;;;;;11.80;54.59;101181.09;4983563;28;97178;-80
2021/10/29 06:28:54;;;;;;;48.13;25.13;;;;;;;11.83;54.64;101170.41;4976132;28;97634;-79
2021/10/29 06:31:21;;;;;;;51.83;25.25;;;;;;;11.94;54.56;101178.00;4982455;28;100609;-80
2021/10/29 06:33:49;;;;;;;48.25;25.40;;;;;;;11.88;54.07;101180.84;4981353;28;99226;-80
2021/10/29 06:36:16;;;;;;;43.55;23.67;;;;;;;11.64;55.37;101177.19;4975551;28;96804;-81
2021/10/29 06:38:44;;;;;;;53.50;26.80;;;;;;;11.75;54.90;101188.31;4984390;28;98547;-79
2021/10/29 06:41:11;;;;;;;44.90;25.38;;;;;;;11.68;54.80;101180.63;4989534;28;98354;-80
2021/10/29 06:43:43;;;;;;;43.72;24.05;;;;;;;11.78;54.81;101177.63;4988655;28;97467;-78
2021/10/29 06:49:05;;;;;;;49.60;24.65;;;;;;;11.56;55.57;101188.03;4986912;28;96931;-78
2021/10/29 07:00:06;;;;;;;42.75;24.63;;;;;;;11.30;56.51;101195.94;4989486;28;96824;-79
2021/10/29 07:05:29;;;;;;;46.75;24.10;;;;;;;11.63;55.66;101187.81;4976579;28;98037;-80
2021/10/29 07:40:57;;;;;;;39.97;22.85;;;;;;;12.24;53.89;101195.47;4973834;28;97687;-81
2021/10/29 07:43:29;;;;;;;42.95;23.55;;;;;;;12.28;53.42;101204.16;4973945;28;97010;-79
2021/10/29 07:45:56;;;;;;;43.53;22.92;;;;;;;12.24;53.42;101195.47;4975315;28;101416;-81
2021/10/29 07:48:26;;;;;;;39.50;22.65;;;;;;;12.34;53.44;101199.50;4974398;28;98788;-82
2021/10/29 07:50:52;;;;;;;36.28;22.38;;;;;;;12.45;53.20;101206.22;4969503;28;99732;-80
2021/10/29 07:53:19;;;;;;;39.25;22.77;;;;;;;12.18;53.66;101214.22;4968500;28;99052;-81
2021/10/29 07:55:45;;;;;;;38.97;22.95;;;;;;;12.30;53.39;101208.50;4974305;28;98153;-80
2021/10/29 07:58:12;;;;;;;38.38;23.33;;;;;;;12.40;53.02;101202.88;4970669;28;101293;-80
2021/10/29 08:00:39;;;;;;;37.75;22.67;;;;;;;12.60;52.76;101203.03;4971026;28;97864;-82
2021/10/29 08:03:07;;;;;;;40.45;23.40;;;;;;;12.96;51.88;101204.28;4961005;28;98822;-80
2021/10/29 08:05:36;;;;;;;36.72;22.05;;;;;;;12.93;51.77;101206.22;4967250;28;100530;-81
2021/10/29 08:08:03;;;;;;;43.17;22.15;;;;;;;12.80;51.74;101199.66;4966948;28;99100;-81
2021/10/29 08:10:35;;;;;;;34.17;21.15;;;;;;;12.91;51.92;101200.97;4968942;28;97256;-81
2021/10/29 08:13:02;;;;;;;41.97;23.42;;;;;;;12.78;51.82;101207.66;4974599;28;96752;-82
2021/10/29 08:15:29;;;;;;;36.22;22.70;;;;;;;12.96;51.79;101206.09;4977623;28;99117;-81
2021/10/29 08:17:56;;;;;;;39.45;21.83;;;;;;;13.13;51.18;101212.50;4976072;28;98900;-82
2021/10/29 08:20:23;;;;;;;40.53;22.23;;;;;;;13.46;50.38;101204.13;4976832;28;98182;-82
2021/10/29 08:22:51;;;;;;;37.85;22.00;;;;;;;13.52;50.06;101209.22;4980621;28;96941;-81
2021/10/29 08:25:18;;;;;;;35.63;20.42;;;;;;;13.28;50.79;101200.44;4981943;28;100014;-82
2021/10/29 08:27:46;;;;;;;32.35;20.65;;;;;;;13.75;49.79;101200.31;4972602;28;98656;-80
2021/10/29 08:30:13;;;;;;;42.78;21.40;;;;;;;13.45;50.14;101197.97;4962323;28;97751;-80
2021/10/29 08:32:42;;;;;;;33.78;20.60;;;;;;;13.32;50.39;101199.41;4971425;28;97250;-81
2021/10/29 08:35:10;;;;;;;31.98;20.20;;;;;;;13.84;49.50;101192.81;4975821;28;100394;-81
2021/10/29 08:37:37;;;;;;;37.97;21.60;;;;;;;14.30;48.07;101198.84;4978661;28;97953;-82
2021/10/29 08:40:07;;;;;;;34.90;21.80;;;;;;;14.33;48.17;101196.03;4976964;28;98477;-80
2021/10/29 08:42:36;;;;;;;32.25;20.10;;;;;;;14.25;48.13;101191.03;4977831;28;97662;-81
2021/10/29 08:45:04;;;;;;;32.85;20.88;;;;;;;13.62;49.43;101193.75;4988430;28;99381;-80
2021/10/29 08:47:33;;;;;;;33.25;20.63;;;;;;;13.72;49.50;101181.84;4991948;28;97805;-80
2021/10/29 08:50:01;;;;;;;37.67;21.02;;;;;;;13.59;49.94;101189.44;4990739;28;98267;-80
2021/10/29 08:52:27;;;;;;;33.13;20.05;;;;;;;13.67;49.96;101181.16;4987091;28;97209;-80
2021/10/29 08:54:55;;;;;;;35.60;20.75;;;;;;;14.15;48.82;101183.53;4982289;28;96880;-80
2021/10/29 08:57:25;;;;;;;29.40;19.08;;;;;;;14.27;48.19;101181.22;4993780;28;98074;-80
2021/10/29 08:59:55;;;;;;;32.42;20.42;;;;;;;14.49;47.72;101186.50;4992520;28;96809;-80
2021/10/29 09:02:25;;;;;;;32.65;21.05;;;;;;;14.83;47.13;101171.66;4981316;28;97249;-81
2021/10/29 09:04:55;;;;;;;35.10;19.95;;;;;;;14.72;47.24;101177.44;4972694;28;99983;-80
2021/10/29 09:07:32;;;;;;;32.03;19.42;;;;;;;14.90;47.26;101181.09;4970888;28;101600;-80
2021/10/29 09:10:18;;;;;;;32.15;19.05;;;;;;;15.16;46.32;101175.41;4966773;28;98818;-81
2021/10/29 09:32:27;;;;;;;26.67;17.77;;;;;;;15.26;46.17;101163.34;4979614;28;97689;-83
2021/10/29 09:35:08;;;;;;;28.23;16.90;;;;;;;15.45;45.69;101166.84;4993964;28;96581;-82
2021/10/29 09:37:50;;;;;;;33.58;19.58;;;;;;;15.60;45.42;101165.28;4971116;28;98736;-84
2021/10/29 09:40:25;;;;;;;29.77;17.95;;;;;;;16.01;45.02;101160.53;4984731;28;98146;-84
2021/10/29 09:43:05;;;;;;;30.33;18.20;;;;;;;15.89;44.86;101162.00;4993747;28;97017;-82
2021/10/29 09:51:46;;;;;;;29.52;17.65;;;;;;;16.55;43.46;101171.88;4983140;28;99102;-83
2021/10/29 09:54:16;;;;;;;34.42;18.48;;;;;;;16.25;44.49;101174.38;4991560;28;98938;-83
2021/10/29 09:56:53;;;;;;;30.35;17.50;;;;;;;15.93;44.93;101168.91;4986611;28;96629;-83
2021/10/29 09:59:19;;;;;;;28.90;18.25;;;;;;;16.01;44.68;101175.66;4987464;28;100186;-83
2021/10/29 10:01:48;;;;;;;25.98;17.10;;;;;;;16.47;43.71;101174.13;4977405;28;101985;-84
2021/10/29 10:04:17;;;;;;;27.88;19.02;;;;;;;16.55;43.62;101169.22;4983791;28;97537;-83
2021/10/29 10:06:45;;;;;;;25.50;17.30;;;;;;;16.71;43.45;101178.16;4992510;28;96780;-83
2021/10/29 10:09:12;;;;;;;24.98;17.13;;;;;;;17.28;42.20;101170.53;4973755;28;99205;-83
2021/10/29 10:11:42;;;;;;;29.42;18.10;;;;;;;16.93;42.76;101169.88;4970583;28;100909;-84
2021/10/29 10:14:10;;;;;;;29.33;17.65;;;;;;;16.96;42.69;101165.22;4978602;28;96875;-83
2021/10/29 10:16:40;;;;;;;28.23;17.45;;;;;;;17.28;42.72;101167.88;4982867;28;98976;-83
2021/10/29 10:19:09;;;;;;;25.85;17.30;;;;;;;17.05;42.71;101166.50;4975035;28;98225;-84
2021/10/29 10:21:40;;;;;;;27.27;17.92;;;;;;;16.72;43.15;101153.22;4972229;28;101398;-83
2021/10/29 10:24:14;;;;;;;27.23;18.95;;;;;;;17.07;42.98;101159.25;4980658;28;98451;-83
2021/10/29 10:41:01;;;;;;;26.23;18.30;;;;;;;17.27;42.42;101155.47;4981608;28;97225;-82
2021/10/29 10:46:18;;;;;;;27.58;18.40;;;;;;;16.53;44.08;101152.44;4993038;28;96723;-83
2021/10/29 10:48:50;;;;;;;28.08;18.40;;;;;;;16.72;43.74;101154.06;4990400;28;97191;-81
2021/10/29 10:51:39;;;;;;;30.13;18.83;;;;;;;16.93;43.16;101153.84;4975431;28;98853;-80
2021/10/29 10:54:16;;;;;;;26.60;17.90;;;;;;;17.13;42.77;101149.09;4975974;28;101323;-82
2021/10/29 10:56:56;;;;;;;27.10;17.30;;;;;;;16.84;43.16;101141.00;4985368;28;96722;-81
2021/10/29 10:59:36;;;;;;;26.00;16.83;;;;;;;17.08;42.78;101137.81;4979176;28;98871;-82
2021/10/29 11:02:33;;;;;;;30.65;17.83;;;;;;;17.25;42.39;101120.00;4986122;28;98954;-81
2021/10/29 11:11:00;;;;;;;28.35;16.73;;;;;;;17.32;42.31;101105.34;4980325;28;96957;-81
2021/10/29 11:13:48;;;;;;;26.25;16.80;;;;;;;16.94;42.34;101111.03;4969646;28;98880;-80
2021/10/29 11:16:17;;;;;;;26.83;16.88;;;;;;;17.20;42.14;101098.03;4981475;28;101708;-81
2021/10/29 11:18:54;;;;;;;23.88;16.27;;;;;;;17.69;41.45;101096.06;4982350;28;98502;-81
2021/10/29 11:21:27;;;;;;;30.50;17.38;;;;;;;17.94;41.04;101098.97;4991535;28;97349;-82
2021/10/29 11:23:59;;;;;;;29.45;19.08;;;;;;;17.80;41.85;101097.13;4991967;28;101185;-80
2021/10/29 11:26:32;;;;;;;30.73;20.13;;;;;;;17.88;41.29;101089.53;4985396;28;98607;-80
2021/10/29 11:29:02;;;;;;;29.38;19.35;;;;;;;18.08;41.71;101087.44;4981923;28;97051;-79
2021/10/29 11:31:31;;;;;;;29.00;18.40;;;;;;;17.96;41.63;101080.19;4977085;28;96994;-79
2021/10/29 11:34:01;;;;;;;29.77;19.08;;;;;;;17.98;41.63;101076.47;4974347;28;99478;-81
2021/10/29 11:36:30;;;;;;;31.42;19.83;;;;;;;17.97;41.74;101074.75;4970951;28;99883;-81
2021/10/29 11:39:00;;;;;;;25.75;17.65;;;;;;;17.85;42.16;101076.31;4974565;28;97025;-80
2021/10/29 11:41:31;;;;;;;28.45;18.67;;;;;;;18.05;41.75;101071.59;4972376;28;97686;-81
2021/10/29 11:44:14;;;;;;;30.33;18.92;;;;;;;18.28;40.99;101071.88;4979546;28;100552;-81
2021/10/29 11:46:41;;;;;;;27.90;19.13;;;;;;;18.03;41.21;101061.00;4974948;28;100014;-81
2021/10/29 11:49:10;;;;;;;28.77;18.20;;;;;;;18.28;40.96;101054.97;4978462;28;96799;-81
2021/10/29 11:51:39;;;;;;;26.10;17.50;;;;;;;18.26;40.80;101055.06;4973507;28;97778;-81
2021/10/29 11:54:16;;;;;;;34.00;18.42;;;;;;;18.45;40.51;101054.75;4972314;28;97961;-83
2021/10/29 11:56:49;;;;;;;27.88;17.05;;;;;;;18.36;40.88;101051.81;4974687;28;101671;-81
2021/10/29 12:07:47;;;;;;;26.23;17.67;;;;;;;18.54;40.14;101032.78;4982672;28;96905;-82
2021/10/29 12:10:20;;;;;;;27.85;17.67;;;;;;;18.54;40.04;101024.75;4987078;28;98048;-83
2021/10/29 12:12:48;;;;;;;31.38;17.92;;;;;;;18.28;40.37;101023.75;4986952;28;97785;-80
2021/10/29 12:15:18;;;;;;;32.88;18.80;;;;;;;18.33;40.44;101020.75;4977639;28;98585;-81
2021/10/29 12:17:51;;;;;;;30.08;17.35;;;;;;;18.25;40.54;101013.22;4975292;28;101363;-80
2021/10/29 12:20:23;;;;;;;30.15;17.00;;;;;;;18.44;40.45;101022.78;4986986;28;96813;-79
2021/10/29 12:22:54;;;;;;;26.48;17.10;;;;;;;18.48;40.10;101003.75;4991824;28;97759;-80
2021/10/29 12:25:28;;;;;;;26.05;17.30;;;;;;;18.24;40.46;101005.31;4986740;28;102608;-80
2021/10/29 12:27:59;;;;;;;26.40;16.27;;;;;;;18.62;39.34;100998.41;4992820;28;99215;-81
2021/10/29 12:30:36;;;;;;;28.80;16.95;;;;;;;18.56;39.76;101004.16;4974153;28;97850;-80
2021/10/29 12:33:35;;;;;;;30.42;18.02;;;;;;;18.54;40.03;100998.00;4975131;28;98246;-81
2021/10/29 12:58:55;;;;;;;30.73;17.77;;;;;;;19.64;38.55;100977.28;4982171;28;98269;-82
2021/10/29 13:01:26;;;;;;;28.77;17.75;;;;;;;19.96;37.45;100981.22;4980908;28;98752;-81
2021/10/29 13:03:57;;;;;;;28.25;18.33;;;;;;;19.78;37.25;100977.16;4980616;28;98452;-81
2021/10/29 13:06:29;;;;;;;26.65;16.83;;;;;;;19.91;36.91;100978.03;4975834;28;96912;-81
2021/10/29 13:08:56;;;;;;;27.10;16.83;;;;;;;19.94;37.64;100969.78;4975940;28;99689;-80
2021/10/29 13:11:24;;;;;;;26.83;18.75;;;;;;;20.40;36.26;100969.19;4977489;28;98363;-81
2021/10/29 13:13:56;;;;;;;29.80;18.65;;;;;;;20.59;36.26;100969.56;4974441;28;97539;-81
2021/10/29 13:16:23;;;;;;;33.00;18.02;;;;;;;20.44;36.33;100965.28;4973103;28;98850;-82
2021/10/29 13:19:04;;;;;;;24.52;17.63;;;;;;;20.75;35.19;100958.50;4970814;28;100713;-81
2021/10/29 13:51:59;;;;;;;26.50;16.27;;;;;;;21.60;33.54;100966.28;4986440;28;97249;-81
2021/10/29 13:54:36;;;;;;;24.05;16.77;;;;;;;21.69;33.54;100965.59;4983820;28;99182;-81
2021/10/29 14:30:24;;;;;;;23.88;15.63;;;;;;;19.53;37.60;100921.75;4976797;28;97304;-81
2021/10/29 14:32:54;;;;;;;27.42;15.82;;;;;;;19.45;37.84;100932.09;4978925;28;96715;-82